sensor_id;sensor_type;location;lat;lon;timestamp;P1;durP1;ratioP1;P2;durP2;ratioP2
69280;SDS011;56392;51.082;17.080;2022-08-21T00:00:00;13.40;;;8.90;;
69280;SDS011;56392;51.082;17.080;2022-08-21T00:05:25;15.60;;;9.20;;
69280;SDS011;56392;51.082;17.080;2022-08-21T00:10:28;14.47;;;9.63;;
69280;SDS011;56392;51.082;17.080;2022-08-21T00:15:32;16.03;;;9.17;;
69280;SDS011;56392;51.082;17.080;2022-08-21T00:20:37;16.95;;;10.40;;
69280;SDS011;56392;51.082;17.080;2022-08-21T00:25:41;19.60;;;11.50;;
69280;SDS011;56392;51.082;17.080;2022-08-21T00:30:45;16.53;;;10.00;;
69280;SDS011;56392;51.082;17.080;2022-08-21T00:35:50;14.68;;;9.65;;
69280;SDS011;56392;51.082;17.080;2022-08-21T00:40:54;14.73;;;9.43;;
69280;SDS011;56392;51.082;17.080;2022-08-21T00:45:58;15.27;;;9.10;;
69280;SDS011;56392;51.082;17.080;2022-08-21T00:51:05;13.32;;;8.80;;
69280;SDS011;56392;51.082;17.080;2022-08-21T00:56:11;13.98;;;8.00;;
69280;SDS011;56392;51.082;17.080;2022-08-21T01:01:15;14.20;;;7.40;;
69280;SDS011;56392;51.082;17.080;2022-08-21T01:06:20;12.43;;;7.77;;
69280;SDS011;56392;51.082;17.080;2022-08-21T01:11:23;14.40;;;7.95;;
69280;SDS011;56392;51.082;17.080;2022-08-21T01:16:26;13.65;;;8.02;;
69280;SDS011;56392;51.082;17.080;2022-08-21T01:21:31;13.23;;;7.50;;
69280;SDS011;56392;51.082;17.080;2022-08-21T01:26:34;12.10;;;6.65;;
69280;SDS011;56392;51.082;17.080;2022-08-21T01:31:38;11.23;;;5.75;;
69280;SDS011;56392;51.082;17.080;2022-08-21T01:36:42;10.30;;;5.70;;
69280;SDS011;56392;51.082;17.080;2022-08-21T01:41:46;9.98;;;5.13;;
69280;SDS011;56392;51.082;17.080;2022-08-21T01:46:49;9.80;;;4.53;;
69280;SDS011;56392;51.082;17.080;2022-08-21T01:51:53;9.23;;;4.30;;
69280;SDS011;56392;51.082;17.080;2022-08-21T01:56:56;10.40;;;4.93;;
69280;SDS011;56392;51.082;17.080;2022-08-21T02:02:00;9.43;;;4.93;;
69280;SDS011;56392;51.082;17.080;2022-08-21T02:07:04;9.02;;;4.53;;
69280;SDS011;56392;51.082;17.080;2022-08-21T02:12:07;8.87;;;4.70;;
69280;SDS011;56392;51.082;17.080;2022-08-21T02:17:10;9.35;;;4.55;;
69280;SDS011;56392;51.082;17.080;2022-08-21T02:22:14;9.18;;;4.20;;
69280;SDS011;56392;51.082;17.080;2022-08-21T02:27:16;7.37;;;3.33;;
69280;SDS011;56392;51.082;17.080;2022-08-21T02:32:19;11.73;;;3.95;;
69280;SDS011;56392;51.082;17.080;2022-08-21T02:37:24;7.28;;;2.70;;
69280;SDS011;56392;51.082;17.080;2022-08-21T02:42:26;6.70;;;2.87;;
69280;SDS011;56392;51.082;17.080;2022-08-21T02:47:29;6.47;;;2.67;;
69280;SDS011;56392;51.082;17.080;2022-08-21T02:52:33;7.57;;;2.50;;
69280;SDS011;56392;51.082;17.080;2022-08-21T02:57:36;6.03;;;2.22;;
69280;SDS011;56392;51.082;17.080;2022-08-21T03:02:38;4.97;;;1.50;;
69280;SDS011;56392;51.082;17.080;2022-08-21T03:07:42;6.15;;;1.92;;
69280;SDS011;56392;51.082;17.080;2022-08-21T03:12:47;6.28;;;1.60;;
69280;SDS011;56392;51.082;17.080;2022-08-21T03:17:50;5.47;;;1.90;;
69280;SDS011;56392;51.082;17.080;2022-08-21T03:22:56;6.03;;;2.17;;
69280;SDS011;56392;51.082;17.080;2022-08-21T03:27:59;6.82;;;1.90;;
69280;SDS011;56392;51.082;17.080;2022-08-21T03:33:02;6.60;;;2.10;;
69280;SDS011;56392;51.082;17.080;2022-08-21T03:38:06;5.83;;;1.90;;
69280;SDS011;56392;51.082;17.080;2022-08-21T03:43:09;5.57;;;2.08;;
69280;SDS011;56392;51.082;17.080;2022-08-21T03:48:12;5.03;;;2.00;;
69280;SDS011;56392;51.082;17.080;2022-08-21T03:53:16;5.30;;;2.00;;
69280;SDS011;56392;51.082;17.080;2022-08-21T03:58:20;11.43;;;2.60;;
69280;SDS011;56392;51.082;17.080;2022-08-21T04:03:24;5.72;;;2.20;;
69280;SDS011;56392;51.082;17.080;2022-08-21T04:08:30;6.47;;;2.60;;
69280;SDS011;56392;51.082;17.080;2022-08-21T04:13:33;7.25;;;2.60;;
69280;SDS011;56392;51.082;17.080;2022-08-21T04:18:36;6.07;;;2.65;;
69280;SDS011;56392;51.082;17.080;2022-08-21T04:23:40;6.27;;;2.50;;
69280;SDS011;56392;51.082;17.080;2022-08-21T04:28:43;6.40;;;2.60;;
69280;SDS011;56392;51.082;17.080;2022-08-21T04:33:45;6.30;;;3.00;;
69280;SDS011;56392;51.082;17.080;2022-08-21T04:38:49;6.15;;;2.70;;
69280;SDS011;56392;51.082;17.080;2022-08-21T04:43:52;6.23;;;2.90;;
69280;SDS011;56392;51.082;17.080;2022-08-21T04:48:55;6.45;;;2.78;;
69280;SDS011;56392;51.082;17.080;2022-08-21T04:54:00;6.20;;;2.92;;
69280;SDS011;56392;51.082;17.080;2022-08-21T04:59:11;6.47;;;2.70;;
69280;SDS011;56392;51.082;17.080;2022-08-21T05:04:18;6.38;;;2.60;;
69280;SDS011;56392;51.082;17.080;2022-08-21T05:09:26;5.88;;;2.50;;
69280;SDS011;56392;51.082;17.080;2022-08-21T05:14:31;5.77;;;2.50;;
69280;SDS011;56392;51.082;17.080;2022-08-21T05:19:34;7.47;;;2.70;;
69280;SDS011;56392;51.082;17.080;2022-08-21T05:24:41;5.90;;;2.58;;
69280;SDS011;56392;51.082;17.080;2022-08-21T05:29:43;5.72;;;2.40;;
69280;SDS011;56392;51.082;17.080;2022-08-21T05:34:46;5.40;;;2.10;;
69280;SDS011;56392;51.082;17.080;2022-08-21T05:39:52;5.03;;;1.90;;
69280;SDS011;56392;51.082;17.080;2022-08-21T05:44:55;5.35;;;2.30;;
69280;SDS011;56392;51.082;17.080;2022-08-21T05:49:57;5.77;;;2.10;;
69280;SDS011;56392;51.082;17.080;2022-08-21T05:55:01;5.50;;;2.20;;
69280;SDS011;56392;51.082;17.080;2022-08-21T06:00:05;5.60;;;2.20;;
69280;SDS011;56392;51.082;17.080;2022-08-21T06:05:10;7.60;;;2.23;;
69280;SDS011;56392;51.082;17.080;2022-08-21T06:10:14;6.97;;;2.20;;
69280;SDS011;56392;51.082;17.080;2022-08-21T06:15:17;7.43;;;2.17;;
69280;SDS011;56392;51.082;17.080;2022-08-21T06:20:20;5.63;;;1.90;;
69280;SDS011;56392;51.082;17.080;2022-08-21T06:25:25;5.90;;;2.00;;
69280;SDS011;56392;51.082;17.080;2022-08-21T06:30:28;6.90;;;2.33;;
69280;SDS011;56392;51.082;17.080;2022-08-21T06:35:31;5.97;;;1.88;;
69280;SDS011;56392;51.082;17.080;2022-08-21T06:40:35;6.20;;;2.30;;
69280;SDS011;56392;51.082;17.080;2022-08-21T06:45:38;6.63;;;2.30;;
69280;SDS011;56392;51.082;17.080;2022-08-21T06:50:41;7.25;;;2.50;;
69280;SDS011;56392;51.082;17.080;2022-08-21T06:55:46;8.37;;;2.30;;
69280;SDS011;56392;51.082;17.080;2022-08-21T07:00:49;10.17;;;2.80;;
69280;SDS011;56392;51.082;17.080;2022-08-21T07:05:53;7.85;;;2.85;;
69280;SDS011;56392;51.082;17.080;2022-08-21T07:10:59;8.18;;;2.95;;
69280;SDS011;56392;51.082;17.080;2022-08-21T07:16:04;10.50;;;3.37;;
69280;SDS011;56392;51.082;17.080;2022-08-21T07:21:07;9.10;;;3.33;;
69280;SDS011;56392;51.082;17.080;2022-08-21T07:26:15;8.50;;;3.47;;
69280;SDS011;56392;51.082;17.080;2022-08-21T07:31:21;11.87;;;3.43;;
69280;SDS011;56392;51.082;17.080;2022-08-21T07:36:25;10.30;;;3.40;;
69280;SDS011;56392;51.082;17.080;2022-08-21T07:41:29;10.48;;;3.85;;
69280;SDS011;56392;51.082;17.080;2022-08-21T07:46:33;10.40;;;3.47;;
69280;SDS011;56392;51.082;17.080;2022-08-21T07:51:38;9.43;;;3.47;;
69280;SDS011;56392;51.082;17.080;2022-08-21T07:56:43;10.55;;;3.85;;
69280;SDS011;56392;51.082;17.080;2022-08-21T08:01:46;10.13;;;3.92;;
69280;SDS011;56392;51.082;17.080;2022-08-21T08:06:49;9.73;;;3.30;;
69280;SDS011;56392;51.082;17.080;2022-08-21T08:11:53;8.10;;;3.40;;
69280;SDS011;56392;51.082;17.080;2022-08-21T08:16:58;7.50;;;2.88;;
69280;SDS011;56392;51.082;17.080;2022-08-21T08:22:11;9.23;;;3.07;;
69280;SDS011;56392;51.082;17.080;2022-08-21T08:27:16;7.32;;;2.95;;
69280;SDS011;56392;51.082;17.080;2022-08-21T08:32:20;8.35;;;2.40;;
69280;SDS011;56392;51.082;17.080;2022-08-21T08:37:23;7.07;;;2.70;;
69280;SDS011;56392;51.082;17.080;2022-08-21T08:42:29;6.33;;;2.33;;
69280;SDS011;56392;51.082;17.080;2022-08-21T08:47:36;7.22;;;2.40;;
69280;SDS011;56392;51.082;17.080;2022-08-21T08:52:41;8.90;;;2.50;;
69280;SDS011;56392;51.082;17.080;2022-08-21T08:57:48;6.87;;;2.30;;
69280;SDS011;56392;51.082;17.080;2022-08-21T09:02:54;6.95;;;2.70;;
69280;SDS011;56392;51.082;17.080;2022-08-21T09:13:36;7.73;;;2.40;;
69280;SDS011;56392;51.082;17.080;2022-08-21T09:18:48;6.95;;;2.40;;
69280;SDS011;56392;51.082;17.080;2022-08-21T09:24:01;6.10;;;2.35;;
69280;SDS011;56392;51.082;17.080;2022-08-21T09:29:13;8.17;;;2.77;;
69280;SDS011;56392;51.082;17.080;2022-08-21T09:34:24;6.20;;;2.40;;
69280;SDS011;56392;51.082;17.080;2022-08-21T09:39:30;8.23;;;2.92;;
69280;SDS011;56392;51.082;17.080;2022-08-21T09:44:36;8.65;;;2.97;;
69280;SDS011;56392;51.082;17.080;2022-08-21T09:49:45;6.97;;;2.33;;
69280;SDS011;56392;51.082;17.080;2022-08-21T09:54:49;6.88;;;2.53;;
69280;SDS011;56392;51.082;17.080;2022-08-21T10:00:06;6.57;;;2.20;;
69280;SDS011;56392;51.082;17.080;2022-08-21T10:05:15;6.67;;;1.90;;
69280;SDS011;56392;51.082;17.080;2022-08-21T10:10:22;5.88;;;1.80;;
69280;SDS011;56392;51.082;17.080;2022-08-21T10:15:32;9.27;;;2.22;;
69280;SDS011;56392;51.082;17.080;2022-08-21T10:20:44;6.30;;;2.20;;
69280;SDS011;56392;51.082;17.080;2022-08-21T10:25:52;10.43;;;2.33;;
69280;SDS011;56392;51.082;17.080;2022-08-21T10:31:03;6.53;;;2.05;;
69280;SDS011;56392;51.082;17.080;2022-08-21T10:36:13;6.07;;;1.73;;
69280;SDS011;56392;51.082;17.080;2022-08-21T10:41:21;8.20;;;2.10;;
69280;SDS011;56392;51.082;17.080;2022-08-21T10:46:38;6.90;;;1.88;;
69280;SDS011;56392;51.082;17.080;2022-08-21T10:51:51;5.85;;;1.98;;
69280;SDS011;56392;51.082;17.080;2022-08-21T10:56:59;6.73;;;2.10;;
69280;SDS011;56392;51.082;17.080;2022-08-21T11:02:12;8.32;;;2.03;;
69280;SDS011;56392;51.082;17.080;2022-08-21T11:07:19;9.30;;;2.08;;
69280;SDS011;56392;51.082;17.080;2022-08-21T11:12:29;6.83;;;1.80;;
69280;SDS011;56392;51.082;17.080;2022-08-21T11:17:38;7.20;;;2.27;;
69280;SDS011;56392;51.082;17.080;2022-08-21T11:22:47;7.65;;;2.38;;
69280;SDS011;56392;51.082;17.080;2022-08-21T11:27:58;8.25;;;2.17;;
69280;SDS011;56392;51.082;17.080;2022-08-21T11:33:10;10.50;;;2.73;;
69280;SDS011;56392;51.082;17.080;2022-08-21T11:38:26;8.02;;;2.55;;
69280;SDS011;56392;51.082;17.080;2022-08-21T11:43:34;10.10;;;3.20;;
69280;SDS011;56392;51.082;17.080;2022-08-21T11:48:43;7.40;;;2.40;;
69280;SDS011;56392;51.082;17.080;2022-08-21T11:53:55;9.70;;;2.80;;
69280;SDS011;56392;51.082;17.080;2022-08-21T11:59:06;6.93;;;2.22;;
69280;SDS011;56392;51.082;17.080;2022-08-21T12:04:18;10.90;;;3.03;;
69280;SDS011;56392;51.082;17.080;2022-08-21T12:09:31;7.20;;;2.53;;
69280;SDS011;56392;51.082;17.080;2022-08-21T12:14:41;9.30;;;2.72;;
69280;SDS011;56392;51.082;17.080;2022-08-21T12:19:57;8.38;;;2.70;;
69280;SDS011;56392;51.082;17.080;2022-08-21T12:25:03;10.47;;;2.80;;
69280;SDS011;56392;51.082;17.080;2022-08-21T12:30:19;9.00;;;2.55;;
69280;SDS011;56392;51.082;17.080;2022-08-21T12:35:27;7.25;;;2.70;;
69280;SDS011;56392;51.082;17.080;2022-08-21T12:40:37;7.57;;;2.50;;
69280;SDS011;56392;51.082;17.080;2022-08-21T12:45:43;8.45;;;2.70;;
69280;SDS011;56392;51.082;17.080;2022-08-21T12:50:50;9.10;;;2.70;;
69280;SDS011;56392;51.082;17.080;2022-08-21T12:55:56;7.70;;;2.50;;
69280;SDS011;56392;51.082;17.080;2022-08-21T13:01:03;8.37;;;2.73;;
69280;SDS011;56392;51.082;17.080;2022-08-21T13:06:13;9.90;;;2.72;;
69280;SDS011;56392;51.082;17.080;2022-08-21T13:11:21;9.38;;;3.15;;
69280;SDS011;56392;51.082;17.080;2022-08-21T13:16:28;8.23;;;3.00;;
69280;SDS011;56392;51.082;17.080;2022-08-21T13:21:38;7.95;;;2.80;;
69280;SDS011;56392;51.082;17.080;2022-08-21T13:26:44;7.82;;;2.95;;
69280;SDS011;56392;51.082;17.080;2022-08-21T13:31:48;8.37;;;2.77;;
69280;SDS011;56392;51.082;17.080;2022-08-21T13:36:57;9.10;;;2.75;;
69280;SDS011;56392;51.082;17.080;2022-08-21T13:42:03;7.88;;;2.90;;
69280;SDS011;56392;51.082;17.080;2022-08-21T13:47:12;8.93;;;3.20;;
69280;SDS011;56392;51.082;17.080;2022-08-21T13:52:21;7.73;;;2.90;;
69280;SDS011;56392;51.082;17.080;2022-08-21T13:57:27;8.27;;;3.15;;
69280;SDS011;56392;51.082;17.080;2022-08-21T14:02:37;10.27;;;3.05;;
69280;SDS011;56392;51.082;17.080;2022-08-21T14:07:42;8.90;;;3.10;;
69280;SDS011;56392;51.082;17.080;2022-08-21T14:12:47;7.50;;;3.00;;
69280;SDS011;56392;51.082;17.080;2022-08-21T14:17:51;9.50;;;2.97;;
69280;SDS011;56392;51.082;17.080;2022-08-21T14:22:55;9.37;;;3.20;;
69280;SDS011;56392;51.082;17.080;2022-08-21T14:28:02;8.93;;;2.75;;
69280;SDS011;56392;51.082;17.080;2022-08-21T14:33:11;8.05;;;3.00;;
69280;SDS011;56392;51.082;17.080;2022-08-21T14:38:28;9.03;;;3.37;;
69280;SDS011;56392;51.082;17.080;2022-08-21T14:43:31;8.20;;;3.00;;
69280;SDS011;56392;51.082;17.080;2022-08-21T14:48:34;7.65;;;2.55;;
69280;SDS011;56392;51.082;17.080;2022-08-21T14:53:38;8.55;;;2.90;;
69280;SDS011;56392;51.082;17.080;2022-08-21T14:58:41;8.30;;;3.10;;
69280;SDS011;56392;51.082;17.080;2022-08-21T15:03:46;9.65;;;3.03;;
69280;SDS011;56392;51.082;17.080;2022-08-21T15:08:52;8.20;;;3.05;;
69280;SDS011;56392;51.082;17.080;2022-08-21T15:13:55;8.83;;;3.27;;
69280;SDS011;56392;51.082;17.080;2022-08-21T15:19:00;7.50;;;3.20;;
69280;SDS011;56392;51.082;17.080;2022-08-21T15:24:04;8.80;;;3.15;;
69280;SDS011;56392;51.082;17.080;2022-08-21T15:29:07;9.20;;;3.50;;
69280;SDS011;56392;51.082;17.080;2022-08-21T15:34:11;8.37;;;3.17;;
69280;SDS011;56392;51.082;17.080;2022-08-21T15:39:15;8.88;;;3.13;;
69280;SDS011;56392;51.082;17.080;2022-08-21T15:44:18;9.27;;;3.53;;
69280;SDS011;56392;51.082;17.080;2022-08-21T15:49:23;8.27;;;3.70;;
69280;SDS011;56392;51.082;17.080;2022-08-21T15:54:27;8.20;;;3.80;;
69280;SDS011;56392;51.082;17.080;2022-08-21T15:59:31;8.43;;;3.38;;
69280;SDS011;56392;51.082;17.080;2022-08-21T16:04:40;9.27;;;3.97;;
69280;SDS011;56392;51.082;17.080;2022-08-21T16:09:44;7.97;;;3.70;;
69280;SDS011;56392;51.082;17.080;2022-08-21T16:14:47;9.35;;;3.58;;
69280;SDS011;56392;51.082;17.080;2022-08-21T16:19:51;9.30;;;3.70;;
69280;SDS011;56392;51.082;17.080;2022-08-21T16:24:57;8.00;;;3.70;;
69280;SDS011;56392;51.082;17.080;2022-08-21T16:30:02;7.50;;;3.40;;
69280;SDS011;56392;51.082;17.080;2022-08-21T16:35:07;8.65;;;3.50;;
69280;SDS011;56392;51.082;17.080;2022-08-21T16:40:14;8.80;;;3.30;;
69280;SDS011;56392;51.082;17.080;2022-08-21T16:45:18;7.68;;;3.20;;
69280;SDS011;56392;51.082;17.080;2022-08-21T16:50:22;8.23;;;3.20;;
69280;SDS011;56392;51.082;17.080;2022-08-21T16:55:27;9.10;;;3.00;;
69280;SDS011;56392;51.082;17.080;2022-08-21T17:00:30;8.32;;;3.03;;
69280;SDS011;56392;51.082;17.080;2022-08-21T17:05:33;8.52;;;3.10;;
69280;SDS011;56392;51.082;17.080;2022-08-21T17:10:37;7.90;;;3.00;;
69280;SDS011;56392;51.082;17.080;2022-08-21T17:15:43;8.50;;;2.77;;
69280;SDS011;56392;51.082;17.080;2022-08-21T17:20:46;8.32;;;2.63;;
69280;SDS011;56392;51.082;17.080;2022-08-21T17:25:52;6.38;;;2.20;;
69280;SDS011;56392;51.082;17.080;2022-08-21T17:30:55;5.53;;;2.07;;
69280;SDS011;56392;51.082;17.080;2022-08-21T17:36:02;6.70;;;2.45;;
69280;SDS011;56392;51.082;17.080;2022-08-21T17:41:09;5.55;;;2.25;;
69280;SDS011;56392;51.082;17.080;2022-08-21T17:46:14;5.77;;;2.20;;
69280;SDS011;56392;51.082;17.080;2022-08-21T17:51:20;5.78;;;1.90;;
69280;SDS011;56392;51.082;17.080;2022-08-21T17:56:25;10.00;;;2.00;;
69280;SDS011;56392;51.082;17.080;2022-08-21T18:01:36;6.90;;;2.10;;
69280;SDS011;56392;51.082;17.080;2022-08-21T18:06:43;7.27;;;2.00;;
69280;SDS011;56392;51.082;17.080;2022-08-21T18:11:48;6.95;;;1.90;;
69280;SDS011;56392;51.082;17.080;2022-08-21T18:16:53;7.95;;;2.10;;
69280;SDS011;56392;51.082;17.080;2022-08-21T18:21:56;6.20;;;2.27;;
69280;SDS011;56392;51.082;17.080;2022-08-21T18:27:01;6.82;;;2.05;;
69280;SDS011;56392;51.082;17.080;2022-08-21T18:32:07;8.10;;;2.40;;
69280;SDS011;56392;51.082;17.080;2022-08-21T18:37:10;5.43;;;1.80;;
69280;SDS011;56392;51.082;17.080;2022-08-21T18:42:15;5.93;;;2.10;;
69280;SDS011;56392;51.082;17.080;2022-08-21T18:47:20;6.38;;;2.10;;
69280;SDS011;56392;51.082;17.080;2022-08-21T18:52:29;6.43;;;2.23;;
69280;SDS011;56392;51.082;17.080;2022-08-21T18:57:33;6.37;;;2.03;;
69280;SDS011;56392;51.082;17.080;2022-08-21T19:02:43;6.78;;;1.95;;
69280;SDS011;56392;51.082;17.080;2022-08-21T19:07:49;5.80;;;2.38;;
69280;SDS011;56392;51.082;17.080;2022-08-21T19:12:59;7.83;;;2.30;;
69280;SDS011;56392;51.082;17.080;2022-08-21T19:18:04;7.55;;;2.45;;
69280;SDS011;56392;51.082;17.080;2022-08-21T19:23:12;8.15;;;2.17;;
69280;SDS011;56392;51.082;17.080;2022-08-21T19:28:19;8.30;;;2.50;;
69280;SDS011;56392;51.082;17.080;2022-08-21T19:33:26;6.47;;;2.45;;
69280;SDS011;56392;51.082;17.080;2022-08-21T19:38:32;7.28;;;2.38;;
69280;SDS011;56392;51.082;17.080;2022-08-21T19:43:40;8.77;;;2.57;;
69280;SDS011;56392;51.082;17.080;2022-08-21T19:48:45;6.53;;;2.60;;
69280;SDS011;56392;51.082;17.080;2022-08-21T19:53:48;7.40;;;2.45;;
69280;SDS011;56392;51.082;17.080;2022-08-21T19:58:52;7.13;;;2.50;;
69280;SDS011;56392;51.082;17.080;2022-08-21T20:03:56;7.67;;;2.77;;
69280;SDS011;56392;51.082;17.080;2022-08-21T20:08:59;7.72;;;2.67;;
69280;SDS011;56392;51.082;17.080;2022-08-21T20:14:03;7.13;;;2.90;;
69280;SDS011;56392;51.082;17.080;2022-08-21T20:19:07;8.37;;;2.90;;
69280;SDS011;56392;51.082;17.080;2022-08-21T20:24:10;8.00;;;2.92;;
69280;SDS011;56392;51.082;17.080;2022-08-21T20:29:14;9.40;;;2.90;;
69280;SDS011;56392;51.082;17.080;2022-08-21T20:34:17;8.50;;;2.63;;
69280;SDS011;56392;51.082;17.080;2022-08-21T20:39:20;10.70;;;3.30;;
69280;SDS011;56392;51.082;17.080;2022-08-21T20:44:25;7.82;;;2.83;;
69280;SDS011;56392;51.082;17.080;2022-08-21T20:49:33;8.27;;;2.70;;
69280;SDS011;56392;51.082;17.080;2022-08-21T20:54:40;7.37;;;2.90;;
69280;SDS011;56392;51.082;17.080;2022-08-21T20:59:49;9.10;;;3.28;;
69280;SDS011;56392;51.082;17.080;2022-08-21T21:04:58;9.30;;;3.30;;
69280;SDS011;56392;51.082;17.080;2022-08-21T21:10:05;9.07;;;3.60;;
69280;SDS011;56392;51.082;17.080;2022-08-21T21:15:13;8.77;;;3.00;;
69280;SDS011;56392;51.082;17.080;2022-08-21T21:20:20;7.90;;;3.05;;
69280;SDS011;56392;51.082;17.080;2022-08-21T21:25:31;8.33;;;3.40;;
69280;SDS011;56392;51.082;17.080;2022-08-21T21:30:41;7.53;;;3.10;;
69280;SDS011;56392;51.082;17.080;2022-08-21T21:35:47;10.70;;;3.97;;
69280;SDS011;56392;51.082;17.080;2022-08-21T21:40:55;11.07;;;3.58;;
69280;SDS011;56392;51.082;17.080;2022-08-21T21:46:16;9.47;;;3.40;;
69280;SDS011;56392;51.082;17.080;2022-08-21T21:51:31;9.00;;;3.15;;
69280;SDS011;56392;51.082;17.080;2022-08-21T21:56:47;8.15;;;2.90;;
69280;SDS011;56392;51.082;17.080;2022-08-21T22:01:59;8.80;;;3.60;;
69280;SDS011;56392;51.082;17.080;2022-08-21T22:07:08;8.18;;;3.60;;
69280;SDS011;56392;51.082;17.080;2022-08-21T22:12:23;8.80;;;3.40;;
69280;SDS011;56392;51.082;17.080;2022-08-21T22:17:35;7.27;;;3.20;;
69280;SDS011;56392;51.082;17.080;2022-08-21T22:22:43;8.47;;;2.63;;
69280;SDS011;56392;51.082;17.080;2022-08-21T22:27:49;7.28;;;3.00;;
69280;SDS011;56392;51.082;17.080;2022-08-21T22:33:01;9.95;;;3.47;;
69280;SDS011;56392;51.082;17.080;2022-08-21T22:38:13;13.00;;;3.67;;
69280;SDS011;56392;51.082;17.080;2022-08-21T22:43:21;8.35;;;3.10;;
69280;SDS011;56392;51.082;17.080;2022-08-21T22:48:27;9.05;;;3.40;;
69280;SDS011;56392;51.082;17.080;2022-08-21T22:53:32;16.37;;;3.83;;
69280;SDS011;56392;51.082;17.080;2022-08-21T22:58:37;7.85;;;3.10;;
69280;SDS011;56392;51.082;17.080;2022-08-21T23:03:55;13.52;;;3.72;;
69280;SDS011;56392;51.082;17.080;2022-08-21T23:09:00;7.93;;;3.30;;
69280;SDS011;56392;51.082;17.080;2022-08-21T23:14:04;10.57;;;3.60;;
69280;SDS011;56392;51.082;17.080;2022-08-21T23:19:11;8.98;;;3.50;;
69280;SDS011;56392;51.082;17.080;2022-08-21T23:24:40;8.32;;;3.50;;
69280;SDS011;56392;51.082;17.080;2022-08-21T23:29:54;8.70;;;3.17;;
69280;SDS011;56392;51.082;17.080;2022-08-21T23:35:07;10.50;;;3.70;;
69280;SDS011;56392;51.082;17.080;2022-08-21T23:40:35;10.02;;;3.55;;
69280;SDS011;56392;51.082;17.080;2022-08-21T23:45:44;10.20;;;3.80;;
69280;SDS011;56392;51.082;17.080;2022-08-21T23:50:59;8.07;;;2.90;;
69280;SDS011;56392;51.082;17.080;2022-08-21T23:56:10;8.75;;;3.30;;
